Terminal Aerodrome Forecast
Issued by NWS

Home | Current Version | Previous Version | Graphics & Text | Print | Product List | Glossary Off
Versions: 1 2 3 4 5 6 7 8 9 10 11 12 13 14 15

752
FTUS43 KUNR 272320
TAFGCC
TAF
KGCC 272320Z 2800/2824 04010KT P6SM VCTS BKN080CB
     FM280300 15007KT P6SM BKN080
     FM280600 17011KT P6SM SHRA OVC050
     FM281400 34014KT P6SM SCT050 BKN100=

USA.gov is the U.S. government's official web portal to all federal, state and local government web resources and services.